ITY7AM LEBL-LIMC
Flight info
| Callsign | ITY7AM |
|---|---|
| Flight time | 0h 58m |
| Altitude | 30000 |
| Route | AGENA DCT BODEQ DCT LUMAS DCT UNANA DCT STP DCT RAPED DCT PIGOS DCT EKSID DCT NOSTA DCT EGHIN DCT ANAKI/N0418F180 P860 DEVOX |
| Aircraft | A359/H-SDE2E3GHIJ3J4J5LM1ORWXY/LB1D1 |
Departure
| Time | 2026-05-06 16:35 |
|---|---|
| Airport | Josep Tarradellas Barcelona-El Prat Airport (LEBL) |
Arrival
| Time | 2026-05-06 17:34 |
|---|---|
| Airport | Milan Malpensa International Airport (LIMC) |
| Time | Latitude | Longitude | Altitude | Speed | Heading |
|---|---|---|---|---|---|
| 2026-05-06 16:32 | 41.29330 | 2.10269 | 20 ft | 0 kts | 158° |
| 2026-05-06 16:34 | 41.29264 | 2.10305 | 20 ft | 10 kts | 158° |
| 2026-05-06 16:34 | 41.29212 | 2.10291 | 23 ft | 7 kts | 232° |
| 2026-05-06 16:34 | 41.29206 | 2.10275 | 22 ft | 0 kts | 244° |
| 2026-05-06 16:35 | 41.29205 | 2.10273 | 22 ft | 4 kts | 244° |
| 2026-05-06 16:35 | 41.29094 | 2.09964 | 28 ft | 77 kts | 245° |
| 2026-05-06 16:35 | 41.28768 | 2.09013 | 27 ft | 147 kts | 246° |
| 2026-05-06 16:35 | 41.28331 | 2.07697 | 686 ft | 155 kts | 242° |
| 2026-05-06 16:36 | 41.27642 | 2.06624 | 1538 ft | 157 kts | 211° |
| 2026-05-06 16:36 | 41.26545 | 2.06396 | 2208 ft | 171 kts | 176° |
| 2026-05-06 16:36 | 41.25264 | 2.06537 | 2632 ft | 198 kts | 178° |
| 2026-05-06 16:36 | 41.23809 | 2.06710 | 3096 ft | 218 kts | 178° |
| 2026-05-06 16:37 | 41.22281 | 2.06601 | 3910 ft | 221 kts | 189° |
| 2026-05-06 16:37 | 41.20763 | 2.06329 | 4865 ft | 220 kts | 191° |
| 2026-05-06 16:37 | 41.19238 | 2.06023 | 5738 ft | 223 kts | 191° |
| 2026-05-06 16:37 | 41.17688 | 2.05735 | 6676 ft | 226 kts | 188° |
| 2026-05-06 16:38 | 41.16640 | 2.05634 | 7198 ft | 233 kts | 186° |
| 2026-05-06 16:38 | 41.14960 | 2.05543 | 8001 ft | 243 kts | 185° |
| 2026-05-06 16:38 | 41.13279 | 2.05471 | 8921 ft | 248 kts | 185° |
| 2026-05-06 16:38 | 41.11463 | 2.05698 | 9591 ft | 272 kts | 168° |
| 2026-05-06 16:39 | 41.09763 | 2.06885 | 10258 ft | 294 kts | 141° |
| 2026-05-06 16:39 | 41.08556 | 2.09208 | 10702 ft | 325 kts | 112° |
| 2026-05-06 16:39 | 41.08246 | 2.12280 | 11106 ft | 352 kts | 85° |
| 2026-05-06 16:39 | 41.08990 | 2.15441 | 11687 ft | 368 kts | 60° |
| 2026-05-06 16:40 | 41.10388 | 2.18329 | 12483 ft | 377 kts | 56° |
| 2026-05-06 16:40 | 41.11780 | 2.21314 | 13309 ft | 385 kts | 60° |
| 2026-05-06 16:40 | 41.13070 | 2.24455 | 14100 ft | 391 kts | 63° |
| 2026-05-06 16:40 | 41.14299 | 2.27728 | 14797 ft | 400 kts | 64° |
| 2026-05-06 16:41 | 41.15494 | 2.31084 | 15486 ft | 407 kts | 65° |
| 2026-05-06 16:41 | 41.16689 | 2.34532 | 16195 ft | 414 kts | 66° |
| 2026-05-06 16:41 | 41.17887 | 2.38035 | 16908 ft | 421 kts | 66° |
| 2026-05-06 16:41 | 41.19098 | 2.41609 | 17632 ft | 428 kts | 66° |
| 2026-05-06 16:42 | 41.20326 | 2.45248 | 18322 ft | 435 kts | 66° |
| 2026-05-06 16:42 | 41.21572 | 2.48950 | 18975 ft | 442 kts | 66° |
| 2026-05-06 16:42 | 41.22829 | 2.52696 | 19647 ft | 448 kts | 67° |
| 2026-05-06 16:42 | 41.24106 | 2.56508 | 20342 ft | 454 kts | 67° |
| 2026-05-06 16:43 | 41.25395 | 2.60364 | 21021 ft | 460 kts | 67° |
| 2026-05-06 16:43 | 41.26701 | 2.64274 | 21690 ft | 466 kts | 67° |
| 2026-05-06 16:43 | 41.28023 | 2.68240 | 22363 ft | 472 kts | 67° |
| 2026-05-06 16:43 | 41.29362 | 2.72264 | 23002 ft | 479 kts | 67° |
| 2026-05-06 16:44 | 41.30717 | 2.76340 | 23637 ft | 485 kts | 68° |
| 2026-05-06 16:44 | 41.32088 | 2.80471 | 24181 ft | 491 kts | 68° |
| 2026-05-06 16:44 | 41.33277 | 2.84060 | 24666 ft | 495 kts | 68° |
| 2026-05-06 16:44 | 41.34672 | 2.88273 | 25233 ft | 500 kts | 68° |
| 2026-05-06 16:45 | 41.36080 | 2.92534 | 25768 ft | 506 kts | 68° |
| 2026-05-06 16:45 | 41.37503 | 2.96848 | 26310 ft | 511 kts | 68° |
| 2026-05-06 16:45 | 41.38940 | 3.01209 | 26857 ft | 516 kts | 68° |
| 2026-05-06 16:45 | 41.40385 | 3.05603 | 27415 ft | 521 kts | 68° |
| 2026-05-06 16:46 | 41.41842 | 3.10038 | 27941 ft | 526 kts | 68° |
| 2026-05-06 16:46 | 41.43504 | 3.14422 | 28477 ft | 532 kts | 60° |
| 2026-05-06 16:46 | 41.45411 | 3.18667 | 28988 ft | 537 kts | 59° |
| 2026-05-06 16:46 | 41.47431 | 3.22902 | 29490 ft | 543 kts | 57° |
| 2026-05-06 16:47 | 41.49509 | 3.27132 | 29971 ft | 548 kts | 57° |
| 2026-05-06 16:47 | 41.51620 | 3.31383 | 30398 ft | 552 kts | 57° |
| 2026-05-06 16:47 | 41.53740 | 3.35657 | 30850 ft | 554 kts | 57° |
| 2026-05-06 16:47 | 41.55868 | 3.39969 | 31280 ft | 557 kts | 57° |
| 2026-05-06 16:48 | 41.57999 | 3.44315 | 31690 ft | 561 kts | 58° |
| 2026-05-06 16:48 | 41.60131 | 3.48683 | 32072 ft | 563 kts | 58° |
| 2026-05-06 16:48 | 41.62272 | 3.53087 | 32476 ft | 566 kts | 58° |
| 2026-05-06 16:48 | 41.64417 | 3.57513 | 32849 ft | 569 kts | 58° |
| 2026-05-06 16:49 | 41.66574 | 3.61970 | 33176 ft | 572 kts | 58° |
| 2026-05-06 16:49 | 41.68736 | 3.66442 | 33653 ft | 572 kts | 58° |
| 2026-05-06 16:49 | 41.70890 | 3.70903 | 33904 ft | 573 kts | 58° |
| 2026-05-06 16:50 | 41.75178 | 3.79799 | 33941 ft | 571 kts | 58° |
| 2026-05-06 16:50 | 41.79485 | 3.88760 | 33942 ft | 572 kts | 59° |
| 2026-05-06 16:51 | 41.83820 | 3.97809 | 33942 ft | 573 kts | 59° |
| 2026-05-06 16:51 | 41.88087 | 4.06744 | 33940 ft | 573 kts | 59° |
| 2026-05-06 16:52 | 41.92405 | 4.15810 | 33945 ft | 573 kts | 59° |
| 2026-05-06 16:52 | 41.96664 | 4.24780 | 33939 ft | 573 kts | 59° |
| 2026-05-06 16:53 | 42.00944 | 4.33823 | 33937 ft | 573 kts | 59° |
| 2026-05-06 16:53 | 42.05219 | 4.42882 | 33939 ft | 574 kts | 59° |
| 2026-05-06 16:54 | 42.09488 | 4.51956 | 33938 ft | 574 kts | 59° |
| 2026-05-06 16:54 | 42.13751 | 4.61044 | 33938 ft | 574 kts | 59° |
| 2026-05-06 16:55 | 42.18008 | 4.70147 | 33937 ft | 574 kts | 59° |
| 2026-05-06 16:55 | 42.22257 | 4.79262 | 33939 ft | 574 kts | 59° |
| 2026-05-06 16:56 | 42.26505 | 4.88401 | 33937 ft | 574 kts | 60° |
| 2026-05-06 16:56 | 42.30742 | 4.97544 | 33933 ft | 574 kts | 60° |
| 2026-05-06 16:57 | 42.34967 | 5.06689 | 33936 ft | 574 kts | 60° |
| 2026-05-06 16:57 | 42.39196 | 5.15872 | 33926 ft | 574 kts | 60° |
| 2026-05-06 16:58 | 42.43403 | 5.25033 | 33926 ft | 574 kts | 60° |
| 2026-05-06 16:58 | 42.47619 | 5.34241 | 33926 ft | 574 kts | 60° |
| 2026-05-06 16:59 | 42.51820 | 5.43446 | 33922 ft | 574 kts | 60° |
| 2026-05-06 16:59 | 42.56012 | 5.52659 | 33921 ft | 573 kts | 60° |
| 2026-05-06 17:00 | 42.60184 | 5.61856 | 33918 ft | 574 kts | 60° |
| 2026-05-06 17:00 | 42.64368 | 5.71112 | 33918 ft | 575 kts | 60° |
| 2026-05-06 17:01 | 42.68545 | 5.80374 | 33918 ft | 575 kts | 60° |
| 2026-05-06 17:01 | 42.72724 | 5.89665 | 33917 ft | 576 kts | 60° |
| 2026-05-06 17:02 | 42.76888 | 5.98973 | 33911 ft | 575 kts | 60° |
| 2026-05-06 17:02 | 42.81036 | 6.08268 | 33910 ft | 575 kts | 60° |
| 2026-05-06 17:03 | 42.85448 | 6.17351 | 33910 ft | 576 kts | 50° |
| 2026-05-06 17:03 | 42.91213 | 6.24922 | 33910 ft | 575 kts | 40° |
| 2026-05-06 17:04 | 42.97337 | 6.31940 | 33908 ft | 575 kts | 38° |
| 2026-05-06 17:04 | 43.03505 | 6.38884 | 33907 ft | 575 kts | 38° |
| 2026-05-06 17:05 | 43.09636 | 6.45887 | 33898 ft | 574 kts | 38° |
| 2026-05-06 17:05 | 43.15704 | 6.52901 | 33883 ft | 575 kts | 39° |
| 2026-05-06 17:06 | 43.21659 | 6.60191 | 33873 ft | 576 kts | 47° |
| 2026-05-06 17:06 | 43.26612 | 6.68810 | 33867 ft | 575 kts | 54° |
| 2026-05-06 17:07 | 43.31315 | 6.77710 | 33855 ft | 575 kts | 55° |
| 2026-05-06 17:07 | 43.35970 | 6.86658 | 33853 ft | 575 kts | 55° |
| 2026-05-06 17:08 | 43.40643 | 6.95602 | 33853 ft | 575 kts | 55° |
| 2026-05-06 17:08 | 43.45312 | 7.04532 | 33832 ft | 575 kts | 55° |
| 2026-05-06 17:09 | 43.49982 | 7.13484 | 33831 ft | 576 kts | 55° |
| 2026-05-06 17:09 | 43.54644 | 7.22446 | 33827 ft | 576 kts | 55° |
| 2026-05-06 17:10 | 43.59299 | 7.31423 | 33828 ft | 575 kts | 55° |
| 2026-05-06 17:10 | 43.63943 | 7.40399 | 33825 ft | 571 kts | 55° |
| 2026-05-06 17:11 | 43.68988 | 7.48800 | 33690 ft | 570 kts | 42° |
| 2026-05-06 17:11 | 43.71912 | 7.52519 | 33416 ft | 571 kts | 40° |
| 2026-05-06 17:11 | 43.74884 | 7.56175 | 33140 ft | 572 kts | 40° |
| 2026-05-06 17:11 | 43.77860 | 7.59818 | 32878 ft | 572 kts | 40° |
| 2026-05-06 17:12 | 43.80839 | 7.63469 | 32608 ft | 571 kts | 40° |
| 2026-05-06 17:12 | 43.83774 | 7.67070 | 32350 ft | 571 kts | 40° |
| 2026-05-06 17:12 | 43.86744 | 7.70719 | 32087 ft | 571 kts | 40° |
| 2026-05-06 17:12 | 43.89708 | 7.74367 | 31836 ft | 570 kts | 40° |
| 2026-05-06 17:13 | 43.92671 | 7.78020 | 31452 ft | 570 kts | 40° |
| 2026-05-06 17:13 | 43.95634 | 7.81678 | 30947 ft | 569 kts | 40° |
| 2026-05-06 17:13 | 43.98629 | 7.85379 | 30465 ft | 569 kts | 40° |
| 2026-05-06 17:13 | 44.01582 | 7.89034 | 29976 ft | 568 kts | 40° |
| 2026-05-06 17:14 | 44.04490 | 7.92635 | 29379 ft | 566 kts | 40° |
| 2026-05-06 17:14 | 44.07409 | 7.96248 | 28750 ft | 558 kts | 40° |
| 2026-05-06 17:14 | 44.10278 | 7.99820 | 28149 ft | 550 kts | 40° |
| 2026-05-06 17:14 | 44.13156 | 8.03402 | 27572 ft | 544 kts | 40° |
| 2026-05-06 17:15 | 44.15956 | 8.06886 | 27006 ft | 538 kts | 40° |
| 2026-05-06 17:15 | 44.18728 | 8.10345 | 26422 ft | 533 kts | 40° |
| 2026-05-06 17:15 | 44.21435 | 8.13731 | 25895 ft | 529 kts | 40° |
| 2026-05-06 17:15 | 44.24164 | 8.17149 | 25348 ft | 524 kts | 41° |
| 2026-05-06 17:16 | 44.26860 | 8.20526 | 24788 ft | 519 kts | 41° |
| 2026-05-06 17:16 | 44.29533 | 8.23881 | 24243 ft | 514 kts | 41° |
| 2026-05-06 17:16 | 44.32170 | 8.27194 | 23502 ft | 502 kts | 41° |
| 2026-05-06 17:16 | 44.34722 | 8.30405 | 22054 ft | 487 kts | 41° |
| 2026-05-06 17:17 | 44.37219 | 8.33549 | 20700 ft | 486 kts | 41° |
| 2026-05-06 17:17 | 44.39724 | 8.36707 | 20079 ft | 480 kts | 41° |
| 2026-05-06 17:17 | 44.42168 | 8.39793 | 19795 ft | 466 kts | 41° |
| 2026-05-06 17:17 | 44.44537 | 8.42787 | 19547 ft | 452 kts | 41° |
| 2026-05-06 17:18 | 44.46839 | 8.45698 | 19257 ft | 440 kts | 41° |
| 2026-05-06 17:18 | 44.49092 | 8.48552 | 18953 ft | 434 kts | 41° |
| 2026-05-06 17:18 | 44.51329 | 8.51387 | 18651 ft | 433 kts | 41° |
| 2026-05-06 17:18 | 44.53555 | 8.54213 | 18344 ft | 430 kts | 41° |
| 2026-05-06 17:19 | 44.55767 | 8.57024 | 17945 ft | 428 kts | 41° |
| 2026-05-06 17:19 | 44.57962 | 8.59815 | 17414 ft | 424 kts | 41° |
| 2026-05-06 17:19 | 44.60136 | 8.62584 | 16885 ft | 420 kts | 41° |
| 2026-05-06 17:19 | 44.62284 | 8.65322 | 16390 ft | 416 kts | 41° |
| 2026-05-06 17:20 | 44.64417 | 8.68043 | 15865 ft | 412 kts | 41° |
| 2026-05-06 17:20 | 44.66522 | 8.70729 | 15362 ft | 407 kts | 41° |
| 2026-05-06 17:20 | 44.68820 | 8.73000 | 14933 ft | 401 kts | 24° |
| 2026-05-06 17:20 | 44.71447 | 8.74177 | 14441 ft | 394 kts | 11° |
| 2026-05-06 17:21 | 44.74113 | 8.74821 | 13945 ft | 384 kts | 5° |
| 2026-05-06 17:21 | 44.76785 | 8.75238 | 13301 ft | 388 kts | 3° |
| 2026-05-06 17:21 | 44.79419 | 8.75559 | 12424 ft | 374 kts | 2° |
| 2026-05-06 17:21 | 44.81998 | 8.75819 | 11270 ft | 369 kts | 1° |
| 2026-05-06 17:22 | 44.84569 | 8.76042 | 10413 ft | 371 kts | 1° |
| 2026-05-06 17:22 | 44.86249 | 8.76180 | 10130 ft | 355 kts | 1° |
| 2026-05-06 17:22 | 44.88643 | 8.76375 | 9754 ft | 338 kts | 1° |
| 2026-05-06 17:22 | 44.90958 | 8.76554 | 9430 ft | 329 kts | 1° |
| 2026-05-06 17:23 | 44.93224 | 8.76727 | 9090 ft | 323 kts | 1° |
| 2026-05-06 17:23 | 44.95460 | 8.76895 | 8759 ft | 322 kts | 1° |
| 2026-05-06 17:23 | 44.98417 | 8.77114 | 8250 ft | 319 kts | 1° |
| 2026-05-06 17:23 | 45.00627 | 8.77277 | 7872 ft | 318 kts | 1° |
| 2026-05-06 17:24 | 45.02115 | 8.77383 | 7615 ft | 316 kts | 1° |
| 2026-05-06 17:24 | 45.04310 | 8.77546 | 7242 ft | 315 kts | 2° |
| 2026-05-06 17:24 | 45.06487 | 8.77709 | 6879 ft | 311 kts | 2° |
| 2026-05-06 17:24 | 45.08624 | 8.77868 | 6468 ft | 303 kts | 2° |
| 2026-05-06 17:25 | 45.10663 | 8.78021 | 6024 ft | 284 kts | 2° |
| 2026-05-06 17:25 | 45.12583 | 8.78167 | 5558 ft | 270 kts | 2° |
| 2026-05-06 17:25 | 45.14418 | 8.78306 | 5096 ft | 259 kts | 2° |
| 2026-05-06 17:25 | 45.16173 | 8.78438 | 4748 ft | 245 kts | 2° |
| 2026-05-06 17:26 | 45.17810 | 8.78562 | 4459 ft | 233 kts | 2° |
| 2026-05-06 17:26 | 45.19433 | 8.78684 | 4347 ft | 229 kts | 2° |
| 2026-05-06 17:26 | 45.21002 | 8.78801 | 4266 ft | 230 kts | 2° |
| 2026-05-06 17:26 | 45.22631 | 8.78922 | 4238 ft | 237 kts | 2° |
| 2026-05-06 17:27 | 45.24283 | 8.79046 | 4133 ft | 239 kts | 2° |
| 2026-05-06 17:27 | 45.25947 | 8.79171 | 3995 ft | 240 kts | 2° |
| 2026-05-06 17:27 | 45.27222 | 8.79267 | 3907 ft | 239 kts | 2° |
| 2026-05-06 17:27 | 45.28874 | 8.79389 | 3811 ft | 237 kts | 3° |
| 2026-05-06 17:28 | 45.30515 | 8.79513 | 3701 ft | 236 kts | 2° |
| 2026-05-06 17:28 | 45.32154 | 8.79634 | 3612 ft | 236 kts | 3° |
| 2026-05-06 17:28 | 45.33785 | 8.79754 | 3512 ft | 234 kts | 3° |
| 2026-05-06 17:28 | 45.35411 | 8.79878 | 3415 ft | 234 kts | 3° |
| 2026-05-06 17:29 | 45.37038 | 8.79954 | 3310 ft | 233 kts | 0° |
| 2026-05-06 17:29 | 45.38659 | 8.79926 | 3213 ft | 232 kts | 354° |
| 2026-05-06 17:29 | 45.40247 | 8.79565 | 3112 ft | 231 kts | 348° |
| 2026-05-06 17:29 | 45.41826 | 8.79137 | 3023 ft | 229 kts | 349° |
| 2026-05-06 17:30 | 45.43343 | 8.78722 | 3011 ft | 214 kts | 348° |
| 2026-05-06 17:30 | 45.44757 | 8.78341 | 3043 ft | 200 kts | 349° |
| 2026-05-06 17:30 | 45.46110 | 8.77985 | 3027 ft | 197 kts | 349° |
| 2026-05-06 17:30 | 45.47458 | 8.77630 | 3021 ft | 197 kts | 349° |
| 2026-05-06 17:31 | 45.48790 | 8.77274 | 3020 ft | 190 kts | 349° |
| 2026-05-06 17:31 | 45.50076 | 8.76922 | 3022 ft | 187 kts | 348° |
| 2026-05-06 17:31 | 45.51348 | 8.76568 | 2832 ft | 185 kts | 348° |
| 2026-05-06 17:31 | 45.52591 | 8.76224 | 2582 ft | 180 kts | 349° |
| 2026-05-06 17:32 | 45.53808 | 8.75889 | 2347 ft | 174 kts | 349° |
| 2026-05-06 17:32 | 45.54968 | 8.75569 | 2108 ft | 166 kts | 349° |
| 2026-05-06 17:32 | 45.56075 | 8.75264 | 1888 ft | 158 kts | 350° |
| 2026-05-06 17:32 | 45.57126 | 8.74975 | 1651 ft | 149 kts | 350° |
| 2026-05-06 17:33 | 45.58114 | 8.74704 | 1445 ft | 140 kts | 349° |
| 2026-05-06 17:33 | 45.59032 | 8.74449 | 1265 ft | 129 kts | 348° |
| 2026-05-06 17:33 | 45.59904 | 8.74213 | 1117 ft | 128 kts | 349° |
| 2026-05-06 17:33 | 45.60784 | 8.73967 | 935 ft | 128 kts | 347° |
| 2026-05-06 17:34 | 45.61665 | 8.73723 | 777 ft | 129 kts | 348° |
| 2026-05-06 17:34 | 45.62481 | 8.73497 | 743 ft | 92 kts | 349° |
| 2026-05-06 17:34 | 45.62841 | 8.73391 | 742 ft | 23 kts | 348° |
| 2026-05-06 17:34 | 45.62995 | 8.73335 | 741 ft | 22 kts | 338° |
| 2026-05-06 17:35 | 45.63139 | 8.73248 | 742 ft | 21 kts | 325° |
| 2026-05-06 17:35 | 45.63245 | 8.73107 | 742 ft | 21 kts | 315° |
| 2026-05-06 17:35 | 45.63321 | 8.72941 | 743 ft | 20 kts | 304° |
| 2026-05-06 17:36 | 45.63400 | 8.72566 | 743 ft | 21 kts | 256° |
| 2026-05-06 17:36 | 45.63368 | 8.72357 | 743 ft | 22 kts | 257° |
| 2026-05-06 17:36 | 45.63344 | 8.72174 | 743 ft | 16 kts | 259° |
| 2026-05-06 17:36 | 45.63328 | 8.72059 | 741 ft | 10 kts | 259° |
| 2026-05-06 17:37 | 45.63312 | 8.71940 | 743 ft | 14 kts | 259° |
| 2026-05-06 17:37 | 45.63294 | 8.71800 | 742 ft | 11 kts | 259° |
| 2026-05-06 17:37 | 45.63281 | 8.71705 | 742 ft | 9 kts | 259° |
| 2026-05-06 17:37 | 45.63280 | 8.71692 | 742 ft | 0 kts | 260° |
| 2026-05-06 17:38 | 45.63278 | 8.71676 | 742 ft | 4 kts | 260° |
| 2026-05-06 17:38 | 45.63270 | 8.71614 | 742 ft | 8 kts | 259° |
| 2026-05-06 17:38 | 45.63254 | 8.71518 | 742 ft | 11 kts | 244° |
| 2026-05-06 17:38 | 45.63196 | 8.71469 | 742 ft | 0 kts | 201° |
| 2026-05-06 17:39 | 45.63193 | 8.71468 | 742 ft | 3 kts | 201° |
| 2026-05-06 17:39 | 45.63185 | 8.71463 | 742 ft | 0 kts | 201° |
| 2026-05-06 17:39 | 45.63184 | 8.71462 | 742 ft | 1 kts | 201° |
| 2026-05-06 17:39 | 45.63179 | 8.71460 | 742 ft | 0 kts | 201° |